地図

経路データ

SID SEASON NUMBER BASIN SUBBASIN NAME ISO_TIME NATURE LAT LON WMO_WIND WMO_PRES WMO_AGENCY TRACK_TYPE DIST2LAND LANDFALL IFLAG USA_AGENCY USA_ATCF_ID USA_LAT USA_LON USA_RECORD USA_STATUS USA_WIND USA_PRES USA_SSHS USA_R34_NE USA_R34_SE USA_R34_SW USA_R34_NW USA_R50_NE USA_R50_SE USA_R50_SW USA_R50_NW USA_R64_NE USA_R64_SE USA_R64_SW USA_R64_NW USA_POCI USA_ROCI USA_RMW USA_EYE TOKYO_LAT TOKYO_LON TOKYO_GRADE TOKYO_WIND TOKYO_PRES TOKYO_R50_DIR TOKYO_R50_LONG TOKYO_R50_SHORT TOKYO_R30_DIR TOKYO_R30_LONG TOKYO_R30_SHORT TOKYO_LAND CMA_LAT CMA_LON CMA_CAT CMA_WIND CMA_PRES HKO_LAT HKO_LON HKO_CAT HKO_WIND HKO_PRES NEWDELHI_LAT NEWDELHI_LON NEWDELHI_GRADE NEWDELHI_WIND NEWDELHI_PRES NEWDELHI_CI NEWDELHI_DP NEWDELHI_POCI REUNION_LAT REUNION_LON REUNION_TYPE REUNION_WIND REUNION_PRES REUNION_TNUM REUNION_CI REUNION_RMW REUNION_R34_NE REUNION_R34_SE REUNION_R34_SW REUNION_R34_NW REUNION_R50_NE REUNION_R50_SE REUNION_R50_SW REUNION_R50_NW REUNION_R64_NE REUNION_R64_SE REUNION_R64_SW REUNION_R64_NW BOM_LAT BOM_LON BOM_TYPE BOM_WIND BOM_PRES BOM_TNUM BOM_CI BOM_RMW BOM_R34_NE BOM_R34_SE BOM_R34_SW BOM_R34_NW BOM_R50_NE BOM_R50_SE BOM_R50_SW BOM_R50_NW BOM_R64_NE BOM_R64_SE BOM_R64_SW BOM_R64_NW BOM_ROCI BOM_POCI BOM_EYE BOM_POS_METHOD BOM_PRES_METHOD NADI_LAT NADI_LON NADI_CAT NADI_WIND NADI_PRES WELLINGTON_LAT WELLINGTON_LON WELLINGTON_WIND WELLINGTON_PRES DS824_LAT DS824_LON DS824_STAGE DS824_WIND DS824_PRES TD9636_LAT TD9636_LON TD9636_STAGE TD9636_WIND TD9636_PRES TD9635_LAT TD9635_LON TD9635_WIND TD9635_PRES TD9635_ROCI NEUMANN_LAT NEUMANN_LON NEUMANN_CLASS NEUMANN_WIND NEUMANN_PRES MLC_LAT MLC_LON MLC_CLASS MLC_WIND MLC_PRES USA_GUST BOM_GUST BOM_GUST_PER REUNION_GUST REUNION_GUST_PER USA_SEAHGT USA_SEARAD_NE USA_SEARAD_SE USA_SEARAD_SW USA_SEARAD_NW STORM_SPEED STORM_DIR
1884071S17068 1884 8 SI MM NOT_NAMED 1884-03-11 06:00:00 NR -16.7000 67.9000 reunion spur-split 1138 1138 _____O________ -1 -16.7000 67.9000 99 9.90000 0 0
1884071S17068 1884 8 SI MM NOT_NAMED 1884-03-11 09:00:00 NR -16.7096 67.8963 spur-split 1138 1138 _____P________ -1 -16.7096 67.8963 99 0 0
1884071S17068 1884 8 SI MM NOT_NAMED 1884-03-11 12:00:00 NR -16.7277 67.8847 spur-split 1138 1134 _____P________ -1 -16.7277 67.8847 99 1 219
1884071S17068 1884 8 SI MM NOT_NAMED 1884-03-11 15:00:00 NR -16.7632 67.8571 spur-split 1134 1124 _____P________ -1 -16.7632 67.8571 99 1 219
1884071S17068 1884 8 SI MM NOT_NAMED 1884-03-11 18:00:00 NR -16.8245 67.8057 spur-split 1124 1110 _____P________ -1 -16.8245 67.8057 99 2 220
1884071S17068 1884 8 SI MM NOT_NAMED 1884-03-11 21:00:00 NR -16.9202 67.7224 spur-split 1110 1096 _____P________ -1 -16.9202 67.7224 99 3 220
1884071S17068 1884 8 SI MM NOT_NAMED 1884-03-12 00:00:00 NR -17.0590 67.5992 spur-split 1092 1068 _____P________ -1 -17.0590 67.5992 99 4 221
1884071S17068 1884 8 SI MM NOT_NAMED 1884-03-12 03:00:00 NR -17.2495 67.4278 spur-split 1068 1037 _____P________ -1 -17.2495 67.4278 99 6 221
1884071S17068 1884 8 SI MM NOT_NAMED 1884-03-12 06:00:00 NR -17.5000 67.2000 reunion spur-split 1037 996 _____O________ -1 -17.5000 67.2000 99 9.90000 8 221
1884071S17068 1884 8 SI MM NOT_NAMED 1884-03-12 09:00:00 NR -17.8166 66.9116 spur-split 996 953 _____P________ -1 -17.8166 66.9116 99 9 221
1884071S17068 1884 8 SI MM NOT_NAMED 1884-03-12 12:00:00 NR -18.1949 66.5762 spur-split 953 900 _____P________ -1 -18.1949 66.5762 99 11 219
1884071S17068 1884 8 SI MM NOT_NAMED 1884-03-12 15:00:00 NR -18.6285 66.2118 spur-split 900 858 _____P________ -1 -18.6285 66.2118 99 12 217
1884071S17068 1884 8 SI MM NOT_NAMED 1884-03-12 18:00:00 NR -19.1106 65.8367 spur-split 848 808 _____P________ -1 -19.1106 65.8367 99 12 215
1884071S17068 1884 8 SI MM NOT_NAMED 1884-03-12 21:00:00 NR -19.6350 65.4691 spur-split 808 761 _____P________ -1 -19.6350 65.4691 99 13 212
1884071S17068 1884 8 SI MM NOT_NAMED 1884-03-13 00:00:00 NR -20.1953 65.1278 spur-split 761 730 _____P________ -1 -20.1953 65.1278 99 13 208
1884071S17068 1884 8 SI MM NOT_NAMED 1884-03-13 03:00:00 NR -20.7856 64.8316 spur-split 730 715 _____P________ -1 -20.7856 64.8316 99 13 202
1884071S17068 1884 8 SI MM NOT_NAMED 1884-03-13 06:00:00 NR -21.4000 64.6000 reunion spur-split 717 710 _____O________ -1 -21.4000 64.6000 99 9.90000 13 197
1884071S17068 1884 8 SI MM NOT_NAMED 1884-03-13 09:00:00 NR -22.0205 64.4372 spur-split 710 710 _____P________ -1 -22.0205 64.4372 99 13 191
1884071S17068 1884 8 SI MM NOT_NAMED 1884-03-13 12:00:00 NR -22.6751 64.3281 spur-split 723 723 _____P________ -1 -22.6751 64.3281 99 14 186
1884071S17068 1884 8 SI MM NOT_NAMED 1884-03-13 15:00:00 NR -23.3545 64.2743 spur-split 753 753 _____P________ -1 -23.3545 64.2743 99 14 182
1884071S17068 1884 8 SI MM NOT_NAMED 1884-03-13 18:00:00 NR -24.0496 64.2775 spur-split 783 783 _____P________ -1 -24.0496 64.2775 99 14 178
1884071S17068 1884 8 SI MM NOT_NAMED 1884-03-13 21:00:00 NR -24.7511 64.3397 spur-split 830 830 _____P________ -1 -24.7511 64.3397 99 14 173
1884071S17068 1884 8 SI MM NOT_NAMED 1884-03-14 00:00:00 NR -25.4496 64.4628 spur-split 885 885 _____P________ -1 -25.4496 64.4628 99 14 169
1884071S17068 1884 8 SI MM NOT_NAMED 1884-03-14 03:00:00 NR -26.1357 64.6489 spur-split 941 941 _____P________ -1 -26.1357 64.6489 99 14 164
1884071S17068 1884 8 SI MM NOT_NAMED 1884-03-14 06:00:00 NR -26.8000 64.9000 reunion spur-split 1015 1015 _____O________ -1 -26.8000 64.9000 99 9.90000 15 158
1884071S17068 1884 8 SI MM NOT_NAMED 1884-03-14 09:00:00 NR -27.4803 65.2578 spur-split 1098 1098 _____P________ -1 -27.4803 65.2578 99 15 152
1884071S17068 1884 8 SI MM NOT_NAMED 1884-03-14 12:00:00 NR -28.1506 65.6981 spur-split 1180 1180 _____P________ -1 -28.1506 65.6981 99 16 148
1884071S17068 1884 8 SI MM NOT_NAMED 1884-03-14 15:00:00 NR -28.7989 66.1974 spur-split 1262 1262 _____P________ -1 -28.7989 66.1974 99 16 144
1884071S17068 1884 8 SI MM NOT_NAMED 1884-03-14 18:00:00 NR -29.4131 66.7316 spur-split 1344 1344 _____P________ -1 -29.4131 66.7316 99 15 142
1884071S17068 1884 8 SI MM NOT_NAMED 1884-03-14 21:00:00 NR -29.9814 67.2754 spur-split 1432 1432 _____P________ -1 -29.9814 67.2754 99 14 139
1884071S17068 1884 8 SI MM NOT_NAMED 1884-03-15 00:00:00 NR -30.4926 67.8028 spur-split 1506 1506 _____P________ -1 -30.4926 67.8028 99 13 138
1884071S17068 1884 8 SI MM NOT_NAMED 1884-03-15 03:00:00 NR -30.9356 68.2868 spur-split 1571 1571 _____P________ -1 -30.9356 68.2868 99 11 136
1884071S17068 1884 8 SI MM NOT_NAMED 1884-03-15 06:00:00 NR -31.3000 68.7000 reunion spur-split 1630 1630 _____O________ -1 -31.3000 68.7000 99 9.90000 9 136
1884071S17068 1884 8 SI MM NOT_NAMED 1884-03-15 09:00:00 NR -31.5792 69.0210 spur-split 1673 1673 _____P________ -1 -31.5792 69.0210 99 7 135
1884071S17068 1884 8 SI MM NOT_NAMED 1884-03-15 12:00:00 NR -31.7812 69.2546 spur-split 1709 1709 _____P________ -1 -31.7812 69.2546 99 5 135
1884071S17068 1884 8 SI MM NOT_NAMED 1884-03-15 15:00:00 NR -31.9175 69.4124 spur-split 1724 1724 _____P________ -1 -31.9175 69.4124 99 3 136
1884071S17068 1884 8 SI MM NOT_NAMED 1884-03-15 18:00:00 NR -31.9992 69.5067 spur-split 1738 1738 _____P________ -1 -31.9992 69.5067 99 2 136
1884071S17068 1884 8 SI MM NOT_NAMED 1884-03-15 21:00:00 NR -32.0374 69.5498 spur-split 1738 1738 _____P________ -1 -32.0374 69.5498 99 1 142
1884071S17068 1884 8 SI MM NOT_NAMED 1884-03-16 00:00:00 NR -32.0431 69.5546 spur-split 1745 1738 _____P________ -1 -32.0431 69.5546 99 0 0
1884071S17068 1884 8 SI MM NOT_NAMED 1884-03-16 03:00:00 NR -32.0270 69.5337 spur-split 1738 1738 _____P________ -1 -32.0270 69.5337 99 1 320
1884071S17068 1884 8 SI MM NOT_NAMED 1884-03-16 06:00:00 NR -32.0000 69.5000 reunion spur-split 1738 _____O________ -1 -32.0000 69.5000 99 9.90000 1 313

IBTrACS Databaseについて

本データベースは、米国NOAAが公開する1842年以降の世界の熱帯低気圧のベストトラックデータアーカイブInternational Best Track Archive for Climate Stewardship (IBTrACS)を、ウェブで閲覧しやすい形式に変換したものです。

最終更新日:2021-10-21